NCAR-RAP Real-Time Weather Data

Output produced by METARs form (17 October 2018  17:12 UTC)
found at http://weather.rap.ucar.edu/surface/
 
RJBB 171700Z AUTO 09006KT 9999 NSC 18/13 Q1013 NOSIG
 
 
RJBE 171200Z 04008KT 9999 FEW045 BKN/// 19/10 Q1013
 
 
RJOA 171300Z 04005KT 9999 FEW020 BKN/// 15/10 Q1014
 
RJOB 171200Z 08004KT 050V110 9999 FEW015 SCT070 BKN/// 13/11 Q1014
 
 
RJOH 171700Z VRB01KT 9999 FEW030 BKN050 13/11 Q1014
 
RJOI 171655Z 30008KT 9999 SCT200 16/12 A2994 RMK SLP139 T01560117
 
 
RJOM 171200Z 12007KT 9999 FEW030 BKN/// 17/08 Q1013
 
 
RJOR 171200Z 16006KT 9999 FEW030 SCT090 BKN/// 15/15 Q1014
 
RJOT 171200Z 13003KT 070V190 9999 FEW025 SCT045 BKN/// 15/12 Q1014
 
 
 
RJDC 171200Z VRB02KT 9999 FEW030 BKN/// 17/13 Q1013
 
 
 
RJFF 171700Z AUTO 08001KT 9999 NCD 14/11 Q1014 NOSIG RMK A2996
 
 
RJFK 171200Z 02003KT 9999 FEW030 14/13 Q1013 RMK 1CU030 A2992
 
RJFO 171300Z 30007KT CAVOK 18/13 Q1013
 
RJFR 171700Z 24005KT CAVOK 17/13 Q1014
 
RJFS 171700Z 32002KT CAVOK 12/11 Q1014
 
RJFT 171200Z VRB01KT CAVOK 14/11 Q1014
 
RJFU 171200Z 02009KT CAVOK 18/13 Q1014
 
RJFM 171200Z 27005KT 9999 FEW030 SCT/// 17/13 Q1012